createdAt,value
2019-01-11T00:00:40.181Z,83.69
2019-01-11T00:01:44.236Z,83.65
2019-01-11T00:02:47.621Z,83.51
2019-01-11T00:03:50.900Z,83.68
2019-01-11T00:04:54.284Z,83.72
2019-01-11T00:05:57.577Z,83.58
2019-01-11T00:07:00.874Z,83.32
2019-01-11T00:08:04.738Z,83.31
2019-01-11T00:09:08.179Z,83.68
2019-01-11T00:10:11.593Z,83.83
2019-01-11T00:11:14.949Z,83.91
2019-01-11T00:12:18.226Z,83.95
2019-01-11T00:13:21.508Z,83.87
2019-01-11T00:14:24.896Z,83.73
2019-01-11T00:15:28.576Z,83.68
2019-01-11T00:16:31.874Z,83.44
2019-01-11T00:17:35.232Z,83.40
2019-01-11T00:18:38.535Z,83.37
2019-01-11T00:19:41.825Z,83.32
2019-01-11T00:20:45.247Z,83.61
2019-01-11T00:21:48.536Z,83.52
2019-01-11T00:22:51.874Z,83.45
2019-01-11T00:23:55.240Z,83.27
2019-01-11T00:24:58.920Z,83.20
2019-01-11T00:26:02.252Z,83.13
2019-01-11T00:27:05.553Z,83.06
2019-01-11T00:28:09.180Z,83.00
2019-01-11T00:29:12.595Z,83.10
2019-01-11T00:30:15.953Z,82.96
2019-01-11T00:31:19.329Z,83.26
2019-01-11T00:32:22.666Z,83.26
2019-01-11T00:33:26.304Z,83.43
2019-01-11T00:34:29.599Z,83.27
2019-01-11T00:35:32.885Z,83.21
2019-01-11T00:36:36.214Z,83.15
2019-01-11T00:37:39.504Z,83.14
2019-01-11T00:38:42.911Z,83.02
2019-01-11T00:39:46.268Z,83.04
2019-01-11T00:40:49.555Z,83.09
2019-01-11T00:41:52.849Z,82.98
2019-01-11T00:42:56.216Z,83.17
2019-01-11T00:43:59.864Z,83.23
2019-01-11T00:45:03.222Z,83.42
2019-01-11T00:46:06.842Z,83.34
2019-01-11T00:47:10.155Z,83.29
2019-01-11T00:48:13.439Z,83.08
2019-01-11T00:49:16.798Z,82.93
2019-01-11T00:50:21.856Z,83.06
2019-01-11T00:51:25.147Z,83.26
2019-01-11T00:52:28.469Z,83.46
2019-01-11T00:53:31.853Z,82.88
2019-01-11T00:54:35.212Z,82.59
2019-01-11T00:55:38.572Z,82.52
2019-01-11T00:56:41.858Z,82.52
2019-01-11T00:57:45.181Z,82.36
2019-01-11T00:58:48.536Z,82.21
2019-01-11T00:59:52.114Z,82.22
2019-01-11T01:00:55.397Z,82.36
2019-01-11T01:01:58.811Z,82.22
2019-01-11T01:03:02.124Z,81.98
2019-01-11T01:04:07.389Z,82.23
2019-01-11T01:05:10.496Z,82.12
2019-01-11T01:06:13.858Z,82.26
2019-01-11T01:07:17.228Z,81.98
2019-01-11T01:08:20.721Z,81.95
2019-01-11T01:09:23.999Z,82.31
2019-01-11T01:10:27.381Z,82.64
2019-01-11T01:11:30.637Z,82.67
2019-01-11T01:12:33.988Z,82.65
2019-01-11T01:13:37.385Z,82.47
2019-01-11T01:14:40.679Z,82.24
2019-01-11T01:15:44.139Z,82.18
2019-01-11T01:16:47.428Z,82.06
2019-01-11T01:17:51.420Z,82.03
2019-01-11T01:18:54.853Z,82.34
2019-01-11T01:19:58.145Z,82.67
2019-01-11T01:21:01.439Z,82.99
2019-01-11T01:22:04.734Z,82.83
2019-01-11T01:23:08.030Z,82.84
2019-01-11T01:24:11.326Z,82.71
2019-01-11T01:25:14.618Z,82.65
2019-01-11T01:26:18.995Z,82.82
2019-01-11T01:27:22.280Z,82.77
2019-01-11T01:28:26.004Z,82.86
2019-01-11T01:29:29.327Z,82.95
2019-01-11T01:30:32.709Z,82.86
2019-01-11T01:31:36.009Z,82.59
2019-01-11T01:32:39.298Z,82.44
2019-01-11T01:33:42.586Z,82.45
2019-01-11T01:34:46.318Z,82.41
2019-01-11T01:35:49.684Z,82.38
2019-01-11T01:36:53.230Z,82.37
2019-01-11T01:37:56.526Z,82.35
2019-01-11T01:38:59.818Z,82.53
2019-01-11T01:40:04.516Z,82.55
2019-01-11T01:41:07.810Z,82.54
2019-01-11T01:42:11.107Z,82.57
2019-01-11T01:43:14.393Z,82.43
2019-01-11T01:44:17.680Z,82.50
2019-01-11T01:45:21.082Z,82.34
2019-01-11T01:46:24.378Z,81.94
2019-01-11T01:47:27.702Z,82.01
2019-01-11T01:48:31.002Z,82.09
2019-01-11T01:49:34.346Z,82.32
2019-01-11T01:50:37.645Z,82.38
2019-01-11T01:51:40.925Z,82.42
2019-01-11T01:52:44.233Z,82.34
2019-01-11T01:53:47.720Z,82.30
2019-01-11T01:54:51.177Z,82.46
2019-01-11T01:55:54.474Z,82.56
2019-01-11T01:56:58.103Z,82.67
2019-01-11T01:58:01.510Z,82.63
2019-01-11T01:59:04.802Z,82.47
2019-01-11T02:00:11.405Z,82.44
2019-01-11T02:01:14.763Z,82.39
2019-01-11T02:02:18.070Z,82.31
2019-01-11T02:03:21.421Z,82.29
2019-01-11T02:04:24.820Z,82.37
2019-01-11T02:05:28.109Z,82.46
2019-01-11T02:06:31.415Z,82.62
2019-01-11T02:07:34.716Z,82.97
2019-01-11T02:08:37.999Z,83.00
2019-01-11T02:09:42.981Z,83.07
2019-01-11T02:10:46.366Z,83.17
2019-01-11T02:11:49.787Z,83.35
2019-01-11T02:12:53.157Z,83.53
2019-01-11T02:13:56.525Z,83.73
2019-01-11T02:15:00.192Z,83.65
2019-01-11T02:16:03.464Z,83.64
2019-01-11T02:17:06.818Z,83.53
2019-01-11T02:18:10.111Z,83.50
2019-01-11T02:19:13.414Z,83.35
2019-01-11T02:20:17.541Z,83.52
2019-01-11T02:21:20.826Z,83.46
2019-01-11T02:22:24.224Z,83.19
2019-01-11T02:23:27.506Z,82.91
2019-01-11T02:24:30.791Z,82.78
2019-01-11T02:25:34.085Z,82.73
2019-01-11T02:26:37.456Z,82.89
2019-01-11T02:27:40.784Z,83.12
2019-01-11T02:28:44.400Z,83.03
2019-01-11T02:29:47.751Z,82.95
2019-01-11T02:30:51.115Z,82.97
2019-01-11T02:31:54.525Z,82.89
2019-01-11T02:32:57.918Z,82.89
2019-01-11T02:34:01.207Z,82.80
2019-01-11T02:35:05.061Z,82.73
2019-01-11T02:36:08.714Z,82.81
2019-01-11T02:37:12.070Z,82.92
2019-01-11T02:38:15.466Z,82.94
2019-01-11T02:39:18.763Z,82.83
2019-01-11T02:40:22.043Z,82.78
2019-01-11T02:41:25.671Z,83.16
2019-01-11T02:42:28.959Z,83.54
2019-01-11T02:43:32.297Z,83.60
2019-01-11T02:44:37.303Z,83.71
2019-01-11T02:45:40.589Z,83.69
2019-01-11T02:46:43.874Z,83.68
2019-01-11T02:47:47.157Z,83.55
2019-01-11T02:48:50.471Z,83.40
2019-01-11T02:49:55.089Z,83.18
2019-01-11T02:50:58.583Z,82.94
2019-01-11T02:52:01.874Z,82.90
2019-01-11T02:53:05.161Z,82.83
2019-01-11T02:54:08.486Z,82.81
2019-01-11T02:55:11.881Z,82.86
2019-01-11T02:56:15.165Z,82.77
2019-01-11T02:57:18.453Z,82.79
2019-01-11T02:58:21.748Z,82.71
2019-01-11T02:59:25.140Z,82.59
2019-01-11T03:00:28.507Z,82.69
2019-01-11T03:01:31.789Z,82.69
2019-01-11T03:02:35.078Z,82.55
2019-01-11T03:03:38.359Z,82.35
2019-01-11T03:04:41.682Z,82.20
2019-01-11T03:05:44.991Z,82.33
2019-01-11T03:06:48.384Z,82.28
2019-01-11T03:07:51.667Z,82.10
2019-01-11T03:08:54.957Z,81.91
2019-01-11T03:09:58.285Z,81.84
2019-01-11T03:11:01.574Z,81.73
2019-01-11T03:12:04.870Z,81.59
2019-01-11T03:13:08.159Z,81.60
2019-01-11T03:14:11.510Z,81.60
2019-01-11T03:15:15.991Z,81.58
2019-01-11T03:16:19.386Z,81.70
2019-01-11T03:17:22.679Z,81.44
2019-01-11T03:18:25.985Z,81.19
2019-01-11T03:19:29.253Z,80.95
2019-01-11T03:20:32.544Z,80.63
2019-01-11T03:21:35.881Z,80.63
2019-01-11T03:22:39.183Z,80.69
2019-01-11T03:23:42.856Z,80.73
2019-01-11T03:24:46.522Z,80.74
2019-01-11T03:25:49.815Z,80.46
2019-01-11T03:26:53.139Z,80.24
2019-01-11T03:27:56.421Z,80.21
2019-01-11T03:28:59.721Z,80.26
2019-01-11T03:30:03.377Z,80.39
2019-01-11T03:31:08.314Z,80.51
2019-01-11T03:32:11.643Z,80.46
2019-01-11T03:33:14.924Z,80.39
2019-01-11T03:34:18.216Z,80.43
2019-01-11T03:35:21.501Z,80.29
2019-01-11T03:36:24.787Z,80.40
2019-01-11T03:37:28.110Z,80.53
2019-01-11T03:38:31.497Z,80.64
2019-01-11T03:39:34.798Z,80.80
2019-01-11T03:40:38.422Z,81.05
2019-01-11T03:41:43.355Z,81.27
2019-01-11T03:42:46.687Z,81.18
2019-01-11T03:43:49.950Z,81.09
2019-01-11T03:44:53.240Z,81.04
2019-01-11T03:45:56.525Z,80.95
2019-01-11T03:46:59.815Z,80.90
2019-01-11T03:48:03.560Z,80.91
2019-01-11T03:49:06.920Z,80.89
2019-01-11T03:50:12.527Z,80.81
2019-01-11T03:51:15.804Z,80.78
2019-01-11T03:52:19.459Z,80.76
2019-01-11T03:53:22.823Z,81.98
2019-01-11T03:54:26.080Z,81.97
2019-01-11T03:55:29.370Z,82.46
2019-01-11T03:56:32.660Z,82.58
2019-01-11T03:57:36.030Z,82.20
2019-01-11T03:58:39.347Z,81.57
2019-01-11T03:59:42.989Z,81.16
2019-01-11T04:00:46.278Z,81.00
2019-01-11T04:01:49.561Z,81.37
2019-01-11T04:02:52.918Z,81.93
2019-01-11T04:03:56.240Z,82.11
2019-01-11T04:04:59.528Z,82.59
2019-01-11T04:06:02.813Z,82.77
2019-01-11T04:07:06.100Z,82.85
2019-01-11T04:08:09.468Z,83.08
2019-01-11T04:09:12.809Z,83.45
2019-01-11T04:10:18.349Z,83.62
2019-01-11T04:11:21.649Z,86.92
2019-01-11T04:12:25.261Z,88.22
2019-01-11T04:13:30.576Z,88.34
2019-01-11T04:14:33.747Z,86.85
2019-01-11T04:15:37.105Z,85.71
2019-01-11T04:16:40.393Z,84.49
2019-01-11T04:17:43.749Z,84.75
2019-01-11T04:18:48.672Z,84.75
2019-01-11T04:19:52.007Z,84.60
2019-01-11T04:20:56.875Z,84.30
2019-01-11T04:22:01.801Z,84.03
2019-01-11T04:23:05.093Z,84.05
2019-01-11T04:24:08.446Z,84.11
2019-01-11T04:25:13.496Z,84.43
2019-01-11T04:26:16.785Z,84.38
2019-01-11T04:27:20.156Z,84.48
2019-01-11T04:28:23.584Z,84.36
2019-01-11T04:29:26.938Z,84.55
2019-01-11T04:30:30.256Z,84.49
2019-01-11T04:31:33.604Z,84.38
2019-01-11T04:32:36.951Z,84.30
2019-01-11T04:33:40.236Z,84.33
2019-01-11T04:34:43.544Z,84.34
2019-01-11T04:35:46.855Z,84.37
2019-01-11T04:36:50.136Z,84.85
2019-01-11T04:37:53.529Z,85.16
2019-01-11T04:38:56.815Z,85.26
2019-01-11T04:40:00.106Z,85.33
2019-01-11T04:41:03.914Z,85.58
2019-01-11T04:42:07.284Z,85.53
2019-01-11T04:43:10.666Z,85.39
2019-01-11T04:44:14.461Z,85.38
2019-01-11T04:45:17.920Z,85.66
2019-01-11T04:46:21.246Z,85.71
2019-01-11T04:47:24.627Z,85.77
2019-01-11T04:48:27.905Z,86.26
2019-01-11T04:49:31.195Z,86.35
2019-01-11T04:50:34.491Z,86.60
2019-01-11T04:51:37.823Z,86.73
2019-01-11T04:52:41.143Z,86.62
2019-01-11T04:53:44.498Z,86.46
2019-01-11T04:54:47.784Z,86.17
2019-01-11T04:55:51.074Z,85.83
2019-01-11T04:56:54.387Z,85.69
2019-01-11T04:57:58.028Z,85.51
2019-01-11T04:59:01.424Z,85.39
2019-01-11T05:00:11.218Z,85.74
2019-01-11T05:01:14.570Z,85.90
2019-01-11T05:02:17.856Z,85.88
2019-01-11T05:03:21.478Z,85.79
2019-01-11T05:04:24.841Z,85.62
2019-01-11T05:05:28.129Z,85.15
2019-01-11T05:06:31.492Z,84.69
2019-01-11T05:07:34.829Z,84.78
2019-01-11T05:08:38.123Z,84.85
2019-01-11T05:09:41.409Z,85.11
2019-01-11T05:10:44.725Z,85.01
2019-01-11T05:11:48.018Z,85.19
2019-01-11T05:12:51.409Z,85.04
2019-01-11T05:13:54.766Z,84.97
2019-01-11T05:14:58.065Z,84.49
2019-01-11T05:16:01.425Z,84.14
2019-01-11T05:17:04.710Z,83.84
2019-01-11T05:18:08.047Z,83.77
2019-01-11T05:19:11.336Z,84.02
2019-01-11T05:20:17.138Z,84.06
2019-01-11T05:21:20.834Z,84.13
2019-01-11T05:22:24.129Z,84.29
2019-01-11T05:23:27.534Z,83.92
2019-01-11T05:24:30.834Z,83.79
2019-01-11T05:25:34.121Z,83.72
2019-01-11T05:26:37.467Z,83.36
2019-01-11T05:27:40.764Z,83.07
2019-01-11T05:28:44.077Z,82.85
2019-01-11T05:29:47.356Z,82.59
2019-01-11T05:30:50.946Z,82.50
2019-01-11T05:31:54.573Z,82.68
2019-01-11T05:32:57.869Z,82.88
2019-01-11T05:34:01.166Z,83.22
2019-01-11T05:35:05.971Z,83.34
2019-01-11T05:36:09.329Z,83.29
2019-01-11T05:37:12.680Z,83.22
2019-01-11T05:38:15.974Z,83.26
2019-01-11T05:39:19.390Z,82.99
2019-01-11T05:40:22.649Z,82.80
2019-01-11T05:41:25.961Z,82.61
2019-01-11T05:42:29.219Z,82.31
2019-01-11T05:43:32.565Z,82.13
2019-01-11T05:44:35.885Z,81.97
2019-01-11T05:45:39.167Z,82.11
2019-01-11T05:46:46.837Z,81.98
2019-01-11T05:47:50.326Z,81.95
2019-01-11T05:48:53.762Z,82.19
2019-01-11T05:49:57.082Z,82.23
2019-01-11T05:51:00.378Z,81.65
2019-01-11T05:52:03.680Z,80.35
2019-01-11T05:53:06.960Z,79.87
2019-01-11T05:54:10.257Z,79.66
2019-01-11T05:55:15.230Z,79.69
2019-01-11T05:56:19.292Z,78.15
2019-01-11T05:57:22.598Z,77.67
2019-01-11T05:58:32.127Z,77.43
2019-01-11T05:59:35.786Z,77.83
2019-01-11T06:00:39.087Z,77.13
2019-01-11T06:01:42.382Z,76.93
2019-01-11T06:02:45.816Z,76.94
2019-01-11T06:03:49.161Z,76.72
2019-01-11T06:04:52.544Z,76.62
2019-01-11T06:05:55.868Z,76.81
2019-01-11T06:07:01.821Z,76.95
2019-01-11T06:08:06.701Z,76.87
2019-01-11T06:09:09.984Z,76.59
2019-01-11T06:10:14.958Z,76.84
2019-01-11T06:11:18.242Z,77.25
2019-01-11T06:12:22.597Z,76.48
2019-01-11T06:13:25.879Z,76.30
2019-01-11T06:14:29.561Z,76.61
2019-01-11T06:15:32.874Z,76.01
2019-01-11T06:16:36.503Z,76.56
2019-01-11T06:17:39.861Z,76.63
2019-01-11T06:18:43.130Z,76.70
2019-01-11T06:19:46.559Z,76.29
2019-01-11T06:20:50.354Z,76.20
2019-01-11T06:21:53.727Z,76.62
2019-01-11T06:22:57.367Z,76.71
2019-01-11T06:24:02.693Z,76.43
2019-01-11T06:25:06.355Z,76.38
2019-01-11T06:26:09.740Z,75.84
2019-01-11T06:27:13.029Z,75.38
2019-01-11T06:28:16.323Z,75.77
2019-01-11T06:29:19.937Z,75.71
2019-01-11T06:30:23.592Z,75.48
2019-01-11T06:31:27.002Z,75.64
2019-01-11T06:32:30.282Z,75.64
2019-01-11T06:33:33.629Z,74.92
2019-01-11T06:34:36.988Z,75.38
2019-01-11T06:35:40.344Z,75.17
2019-01-11T06:36:43.652Z,74.99
2019-01-11T06:37:47.409Z,75.35
2019-01-11T06:38:50.702Z,75.64
2019-01-11T06:39:54.005Z,74.67
2019-01-11T06:40:58.920Z,74.84
2019-01-11T06:42:05.574Z,75.41
2019-01-11T06:43:09.024Z,75.31
2019-01-11T06:44:12.634Z,75.39
2019-01-11T06:45:16.262Z,74.39
2019-01-11T06:46:21.551Z,74.62
2019-01-11T06:47:24.960Z,74.35
2019-01-11T06:48:29.886Z,74.27
2019-01-11T06:49:33.165Z,75.36
2019-01-11T06:50:36.680Z,74.86
2019-01-11T06:51:39.987Z,74.38
2019-01-11T06:52:43.389Z,74.25
2019-01-11T06:53:46.728Z,74.17
2019-01-11T06:54:50.086Z,74.30
2019-01-11T06:55:53.378Z,74.70
2019-01-11T06:56:56.732Z,74.74
2019-01-11T06:58:00.088Z,74.48
2019-01-11T06:59:04.970Z,74.22
2019-01-11T07:00:16.893Z,73.82
2019-01-11T07:01:21.350Z,73.25
2019-01-11T07:02:24.706Z,73.58
2019-01-11T07:03:28.096Z,73.53
2019-01-11T07:04:31.452Z,73.26
2019-01-11T07:05:35.277Z,73.33
2019-01-11T07:06:49.511Z,73.97
2019-01-11T07:07:52.865Z,73.46
2019-01-11T07:08:56.619Z,73.65
2019-01-11T07:10:00.132Z,73.49
2019-01-11T07:11:03.943Z,73.76
2019-01-11T07:12:07.224Z,73.88
2019-01-11T07:13:10.510Z,73.46
2019-01-11T07:14:13.907Z,73.28
2019-01-11T07:15:17.686Z,72.48
2019-01-11T07:16:20.980Z,72.93
2019-01-11T07:17:24.260Z,72.08
2019-01-11T07:18:27.946Z,71.57
2019-01-11T07:19:32.633Z,71.79
2019-01-11T07:20:36.221Z,70.94
2019-01-11T07:21:41.060Z,71.66
2019-01-11T07:22:44.381Z,71.39
2019-01-11T07:23:47.660Z,71.54
2019-01-11T07:24:50.988Z,71.61
2019-01-11T07:25:54.273Z,71.58
2019-01-11T07:26:57.725Z,71.06
2019-01-11T07:28:02.186Z,72.24
2019-01-11T07:29:05.573Z,71.63
2019-01-11T07:30:12.272Z,71.41
2019-01-11T07:31:15.799Z,70.44
2019-01-11T07:32:19.229Z,70.38
2019-01-11T07:33:23.485Z,70.45
2019-01-11T07:34:28.473Z,70.30
2019-01-11T07:35:33.466Z,70.49
2019-01-11T07:36:36.991Z,70.35
2019-01-11T07:37:40.286Z,69.95
2019-01-11T07:38:52.425Z,69.92
2019-01-11T07:39:55.705Z,70.86
2019-01-11T07:40:58.987Z,70.37
2019-01-11T07:42:02.282Z,69.97
2019-01-11T07:43:05.567Z,69.90
2019-01-11T07:44:08.874Z,69.78
2019-01-11T07:45:13.315Z,70.08
2019-01-11T07:46:16.710Z,69.51
2019-01-11T07:47:20.424Z,69.60
2019-01-11T07:48:23.793Z,70.85
2019-01-11T07:49:27.089Z,72.00
2019-01-11T07:50:30.691Z,71.83
2019-01-11T07:51:33.979Z,71.67
2019-01-11T07:52:37.264Z,70.39
2019-01-11T07:53:40.629Z,69.38
2019-01-11T07:54:44.154Z,68.09
2019-01-11T07:55:47.402Z,68.15
2019-01-11T07:56:50.972Z,68.25
2019-01-11T07:57:54.256Z,70.66
2019-01-11T07:58:57.537Z,70.29
2019-01-11T08:00:01.142Z,70.00
2019-01-11T08:01:04.530Z,68.58
2019-01-11T08:02:07.875Z,69.43
2019-01-11T08:03:11.171Z,69.56
2019-01-11T08:04:14.456Z,69.94
2019-01-11T08:05:17.789Z,69.73
2019-01-11T08:06:21.087Z,69.42
2019-01-11T08:07:24.441Z,69.41
2019-01-11T08:08:27.725Z,69.56
2019-01-11T08:09:31.171Z,69.87
2019-01-11T08:10:34.482Z,70.42
2019-01-11T08:11:37.770Z,70.27
2019-01-11T08:12:41.061Z,70.39
2019-01-11T08:13:44.346Z,69.98
2019-01-11T08:14:47.782Z,70.78
2019-01-11T08:15:51.106Z,71.05
2019-01-11T08:16:54.410Z,69.08
2019-01-11T08:17:57.686Z,69.48
2019-01-11T08:19:01.130Z,70.29
2019-01-11T08:20:05.645Z,70.17
2019-01-11T08:21:10.560Z,69.45
2019-01-11T08:22:15.533Z,68.78
2019-01-11T08:23:18.895Z,68.42
2019-01-11T08:24:22.312Z,66.00
2019-01-11T08:25:25.570Z,65.29
2019-01-11T08:26:28.857Z,66.71
2019-01-11T08:27:32.141Z,66.65
2019-01-11T08:28:35.531Z,65.60
2019-01-11T08:29:38.881Z,66.38
2019-01-11T08:30:42.174Z,65.27
2019-01-11T08:31:45.469Z,66.26
2019-01-11T08:32:48.747Z,66.01
2019-01-11T08:33:52.958Z,62.70
2019-01-11T08:34:56.244Z,62.80
2019-01-11T08:35:59.741Z,63.40
2019-01-11T08:37:03.197Z,64.41
2019-01-11T08:38:06.490Z,64.76
2019-01-11T08:39:09.813Z,65.82
2019-01-11T08:40:13.278Z,65.42
2019-01-11T08:41:16.576Z,66.38
2019-01-11T08:42:19.908Z,66.31
2019-01-11T08:43:23.204Z,65.71
2019-01-11T08:44:26.529Z,65.52
2019-01-11T08:45:30.135Z,64.74
2019-01-11T08:46:33.414Z,64.15
2019-01-11T08:47:36.762Z,64.93
2019-01-11T08:48:40.114Z,64.46
2019-01-11T08:49:43.817Z,64.49
2019-01-11T08:50:48.778Z,64.82
2019-01-11T08:51:52.054Z,65.63
2019-01-11T08:52:56.123Z,63.72
2019-01-11T08:53:59.481Z,62.87
2019-01-11T08:55:02.801Z,63.04
2019-01-11T08:56:08.413Z,62.80
2019-01-11T08:57:11.170Z,62.75
2019-01-11T08:58:14.458Z,63.19
2019-01-11T08:59:17.748Z,63.02
2019-01-11T09:00:21.110Z,63.71
2019-01-11T09:01:24.466Z,63.55
2019-01-11T09:02:27.763Z,62.46
2019-01-11T09:03:32.682Z,62.14
2019-01-11T09:04:35.972Z,61.58
2019-01-11T09:05:39.366Z,61.02
2019-01-11T09:06:42.652Z,61.44
2019-01-11T09:07:46.034Z,61.23
2019-01-11T09:08:49.747Z,61.19
2019-01-11T09:09:53.039Z,61.96
2019-01-11T09:10:56.365Z,61.60
2019-01-11T09:11:59.684Z,62.20
2019-01-11T09:13:03.068Z,62.43
2019-01-11T09:14:08.332Z,62.20
2019-01-11T09:15:12.010Z,62.41
2019-01-11T09:16:20.607Z,62.67
2019-01-11T09:17:20.795Z,62.42
2019-01-11T09:18:25.808Z,62.11
2019-01-11T09:19:29.079Z,62.39
2019-01-11T09:20:32.375Z,61.13
2019-01-11T09:21:41.465Z,61.55
2019-01-11T09:22:40.852Z,61.14
2019-01-11T09:23:44.137Z,61.80
2019-01-11T09:24:47.422Z,62.13
2019-01-11T09:25:50.723Z,62.16
2019-01-11T09:26:54.052Z,60.82
2019-01-11T09:27:57.370Z,61.95
2019-01-11T09:29:03.002Z,61.94
2019-01-11T09:30:09.120Z,62.32
2019-01-11T09:31:12.978Z,62.31
2019-01-11T09:32:16.283Z,62.07
2019-01-11T09:33:20.562Z,62.38
2019-01-11T09:34:24.534Z,61.84
2019-01-11T09:35:27.829Z,62.41
2019-01-11T09:36:31.122Z,62.51
2019-01-11T09:37:34.501Z,61.74
2019-01-11T09:38:37.757Z,61.71
2019-01-11T09:39:41.099Z,60.76
2019-01-11T09:40:44.634Z,60.87
2019-01-11T09:41:47.915Z,60.94
2019-01-11T09:42:51.391Z,60.53
2019-01-11T09:43:54.746Z,60.74
2019-01-11T09:44:58.035Z,60.61
2019-01-11T09:46:01.320Z,61.74
2019-01-11T09:47:04.661Z,60.59
2019-01-11T09:48:08.005Z,61.21
2019-01-11T09:49:11.386Z,60.16
2019-01-11T09:50:14.749Z,59.60
2019-01-11T09:51:18.057Z,59.63
2019-01-11T09:52:21.423Z,58.59
2019-01-11T09:53:24.744Z,60.05
2019-01-11T09:54:28.034Z,59.44
2019-01-11T09:55:31.392Z,59.10
2019-01-11T09:56:34.791Z,59.00
2019-01-11T09:57:38.150Z,58.58
2019-01-11T09:58:41.522Z,58.63
2019-01-11T09:59:44.924Z,59.20
2019-01-11T10:00:48.350Z,59.99
2019-01-11T10:01:53.278Z,59.93
2019-01-11T10:03:01.057Z,58.50
2019-01-11T10:04:04.542Z,59.51
2019-01-11T10:05:09.014Z,60.68
2019-01-11T10:06:12.417Z,59.69
2019-01-11T10:07:20.044Z,60.43
2019-01-11T10:08:23.505Z,59.55
2019-01-11T10:09:26.858Z,59.77
2019-01-11T10:10:30.148Z,58.91
2019-01-11T10:11:33.469Z,58.79
2019-01-11T10:12:36.778Z,58.74
2019-01-11T10:13:40.336Z,58.99
2019-01-11T10:14:43.618Z,59.82
2019-01-11T10:15:46.911Z,60.45
2019-01-11T10:16:50.274Z,59.98
2019-01-11T10:17:53.822Z,59.14
2019-01-11T10:18:57.117Z,58.73
2019-01-11T10:20:00.398Z,59.92
2019-01-11T10:21:03.702Z,58.66
2019-01-11T10:22:07.058Z,58.15
2019-01-11T10:23:10.364Z,59.14
2019-01-11T10:24:13.691Z,58.66
2019-01-11T10:25:17.045Z,59.44
2019-01-11T10:26:20.337Z,58.15
2019-01-11T10:27:24.000Z,57.83
2019-01-11T10:28:27.300Z,58.84
2019-01-11T10:29:30.636Z,58.22
2019-01-11T10:30:33.919Z,57.92
2019-01-11T10:31:37.547Z,58.33
2019-01-11T10:32:40.973Z,58.21
2019-01-11T10:33:44.363Z,56.06
2019-01-11T10:34:47.689Z,56.32
2019-01-11T10:35:53.340Z,55.55
2019-01-11T10:36:56.618Z,56.64
2019-01-11T10:37:59.952Z,56.00
2019-01-11T10:39:03.988Z,53.98
2019-01-11T10:40:11.796Z,55.30
2019-01-11T10:41:15.065Z,53.71
2019-01-11T10:42:18.511Z,52.21
2019-01-11T10:43:21.964Z,52.46
2019-01-11T10:44:25.266Z,53.71
2019-01-11T10:45:28.648Z,52.92
2019-01-11T10:46:35.770Z,53.39
2019-01-11T10:47:39.045Z,53.37
2019-01-11T10:48:42.325Z,52.76
2019-01-11T10:49:45.615Z,51.96
2019-01-11T10:50:48.958Z,52.13
2019-01-11T10:51:52.253Z,53.26
2019-01-11T10:52:55.801Z,49.28
2019-01-11T10:53:59.081Z,51.62
2019-01-11T10:55:02.380Z,52.84
2019-01-11T10:56:05.689Z,49.25
2019-01-11T10:57:09.037Z,50.21
2019-01-11T10:58:12.318Z,50.69
2019-01-11T10:59:17.119Z,50.82
2019-01-11T11:00:24.610Z,51.29
2019-01-11T11:01:27.966Z,50.89
2019-01-11T11:02:31.250Z,50.34
2019-01-11T11:03:34.649Z,50.75
2019-01-11T11:04:38.013Z,50.19
2019-01-11T11:05:41.309Z,52.03
2019-01-11T11:06:44.742Z,52.35
2019-01-11T11:07:48.029Z,52.24
2019-01-11T11:08:51.310Z,50.71
2019-01-11T11:09:54.652Z,51.83
2019-01-11T11:10:58.002Z,52.65
2019-01-11T11:12:01.409Z,53.50
2019-01-11T11:13:04.701Z,55.45
2019-01-11T11:14:08.112Z,54.03
2019-01-11T11:15:13.747Z,53.28
2019-01-11T11:16:17.030Z,55.05
2019-01-11T11:17:20.349Z,56.71
2019-01-11T11:18:23.776Z,57.54
2019-01-11T11:19:27.143Z,58.56
2019-01-11T11:20:30.500Z,57.88
2019-01-11T11:21:34.790Z,58.43
2019-01-11T11:22:38.286Z,57.44
2019-01-11T11:23:43.147Z,57.30
2019-01-11T11:24:46.460Z,57.76
2019-01-11T11:25:49.744Z,58.31
2019-01-11T11:26:53.100Z,58.37
2019-01-11T11:27:56.431Z,58.17
2019-01-11T11:28:59.720Z,59.15
2019-01-11T11:30:03.016Z,56.99
2019-01-11T11:31:06.307Z,56.98
2019-01-11T11:32:12.791Z,57.99
2019-01-11T11:33:21.245Z,59.08
2019-01-11T11:34:25.484Z,58.19
2019-01-11T11:35:30.309Z,57.02
2019-01-11T11:36:33.600Z,56.91
2019-01-11T11:37:36.891Z,58.02
2019-01-11T11:38:40.216Z,57.49
2019-01-11T11:39:43.533Z,58.09
2019-01-11T11:40:47.180Z,58.26
2019-01-11T11:41:50.562Z,59.01
2019-01-11T11:42:53.902Z,59.53
2019-01-11T11:43:57.299Z,58.93
2019-01-11T11:45:00.600Z,58.88
2019-01-11T11:46:03.974Z,57.89
2019-01-11T11:47:07.274Z,59.12
2019-01-11T11:48:10.639Z,58.05
2019-01-11T11:49:14.285Z,58.38
2019-01-11T11:50:17.581Z,58.55
2019-01-11T11:51:20.936Z,55.58
2019-01-11T11:52:24.413Z,57.25
2019-01-11T11:53:27.746Z,57.13
2019-01-11T11:54:31.075Z,57.41
2019-01-11T11:55:34.376Z,58.04
2019-01-11T11:56:37.668Z,58.00
2019-01-11T11:57:40.962Z,58.38
2019-01-11T11:58:44.249Z,56.82
2019-01-11T11:59:47.639Z,57.13
2019-01-11T12:00:50.943Z,54.76
2019-01-11T12:01:54.222Z,55.18
2019-01-11T12:02:57.568Z,55.93
2019-01-11T12:04:00.820Z,57.45
2019-01-11T12:05:06.674Z,57.02
2019-01-11T12:06:09.965Z,56.34
2019-01-11T12:07:13.263Z,54.57
2019-01-11T12:08:16.569Z,55.30
2019-01-11T12:09:19.867Z,53.51
2019-01-11T12:10:23.568Z,53.11
2019-01-11T12:11:26.933Z,54.46
2019-01-11T12:12:31.427Z,54.54
2019-01-11T12:13:34.961Z,53.70
2019-01-11T12:14:38.308Z,54.64
2019-01-11T12:15:41.637Z,55.26
2019-01-11T12:16:44.931Z,53.29
2019-01-11T12:17:48.230Z,54.21
2019-01-11T12:18:51.564Z,55.29
2019-01-11T12:19:57.145Z,53.61
2019-01-11T12:21:00.069Z,55.01
2019-01-11T12:22:03.365Z,54.61
2019-01-11T12:23:06.636Z,54.90
2019-01-11T12:24:09.924Z,54.00
2019-01-11T12:25:13.204Z,53.76
2019-01-11T12:26:16.669Z,53.61
2019-01-11T12:27:20.005Z,52.89
2019-01-11T12:28:23.285Z,53.21
2019-01-11T12:29:26.794Z,52.39
2019-01-11T12:30:30.077Z,53.33
2019-01-11T12:31:33.537Z,54.19
2019-01-11T12:32:36.831Z,55.40
2019-01-11T12:33:40.112Z,52.97
2019-01-11T12:34:43.381Z,51.48
2019-01-11T12:35:46.690Z,52.83
2019-01-11T12:36:49.994Z,53.94
2019-01-11T12:37:53.287Z,54.35
2019-01-11T12:38:56.561Z,54.31
2019-01-11T12:39:59.848Z,53.50
2019-01-11T12:41:03.133Z,52.04
2019-01-11T12:42:06.450Z,54.06
2019-01-11T12:43:12.077Z,53.37
2019-01-11T12:44:15.427Z,52.89
2019-01-11T12:45:18.817Z,52.30
2019-01-11T12:46:22.260Z,52.23
2019-01-11T12:47:25.595Z,50.82
2019-01-11T12:48:28.998Z,51.34
2019-01-11T12:49:32.349Z,51.48
2019-01-11T12:50:36.130Z,51.93
2019-01-11T12:51:39.424Z,53.04
2019-01-11T12:52:42.707Z,50.95
2019-01-11T12:53:46.086Z,49.90
2019-01-11T12:54:50.747Z,52.25
2019-01-11T12:55:54.049Z,53.19
2019-01-11T12:56:57.361Z,52.07
2019-01-11T12:58:00.638Z,52.04
2019-01-11T12:59:04.332Z,51.99
2019-01-11T13:00:13.465Z,52.55
2019-01-11T13:01:16.747Z,51.18
2019-01-11T13:02:20.027Z,51.97
2019-01-11T13:03:23.448Z,51.61
2019-01-11T13:04:27.073Z,51.61
2019-01-11T13:05:30.365Z,50.13
2019-01-11T13:06:33.718Z,50.88
2019-01-11T13:07:37.008Z,50.89
2019-01-11T13:08:40.294Z,51.13
2019-01-11T13:09:43.622Z,50.54
2019-01-11T13:10:46.905Z,49.09
2019-01-11T13:11:50.189Z,50.70
2019-01-11T13:12:53.611Z,50.90
2019-01-11T13:13:56.888Z,50.20
2019-01-11T13:15:00.287Z,50.25
2019-01-11T13:16:03.672Z,50.80
2019-01-11T13:17:07.033Z,51.94
2019-01-11T13:18:10.311Z,49.03
2019-01-11T13:19:13.638Z,51.04
2019-01-11T13:20:19.152Z,50.23
2019-01-11T13:21:22.819Z,51.66
2019-01-11T13:22:26.109Z,49.92
2019-01-11T13:23:29.406Z,52.23
2019-01-11T13:24:32.762Z,51.04
2019-01-11T13:25:36.073Z,49.98
2019-01-11T13:26:39.436Z,51.79
2019-01-11T13:27:42.720Z,51.42
2019-01-11T13:28:46.001Z,50.68
2019-01-11T13:29:49.288Z,51.06
2019-01-11T13:30:52.609Z,50.83
2019-01-11T13:31:55.959Z,48.40
2019-01-11T13:32:59.289Z,50.02
2019-01-11T13:34:02.538Z,50.57
2019-01-11T13:35:06.917Z,51.64
2019-01-11T13:36:11.882Z,53.12
2019-01-11T13:37:15.252Z,53.49
2019-01-11T13:38:18.747Z,51.65
2019-01-11T13:39:22.031Z,51.57